Líbí se Vám tento web? Budeme velmi rádi, pokud přidáte hodnocení +1

Seznam meteostanic a jejich METAR

Vyhledat místa podle abecedy:
A B C D E F G H I J K L M N O P Q R S T U V W X Y Z

Filtrovat:

ID stanice:
a/nebo
Název místa (fulltext):
 
Místo (ID)Naposledy načteno 
Brussels (EBBR) 20.01.2018 02:50 UTC Zobrazit METAR
EBBR 200250Z 23010KT 9999 BKN027 03/01 Q1009 NOSIG
Bucharest (LRBS) 20.01.2018 03:00 UTC Zobrazit METAR
LRBS 200300Z VRB01KT CAVOK 02/M01 Q1010 NOSIG
Budapest (LHBP) 20.01.2018 03:00 UTC Zobrazit METAR
LHBP 200300Z VRB03KT CAVOK M03/M03 Q1013 NOSIG
Buenos Aires (SABE) 20.01.2018 03:00 UTC Zobrazit METAR
SABE 200300Z 09010KT CAVOK 25/18 Q1015
Bujumbura (HBBA) 19.01.2018 14:00 UTC Zobrazit METAR
HBBA 191400Z 18005KT 8000 SCT025 OVC100 26/21 Q1009 NOSIG
Burgas (LBBG) 20.01.2018 03:00 UTC Zobrazit METAR
LBBG 200300Z 26007KT CAVOK 02/00 Q1012 NOSIG
Bydgoszcz (EPBY) 20.01.2018 03:00 UTC Zobrazit METAR
EPBY 200300Z 21004KT 3300 -SN BR OVC002 00/M00 Q1008
Cairo (HECA) 20.01.2018 03:00 UTC Zobrazit METAR
HECA 200300Z 16005KT CAVOK 12/05 Q1022 NOSIG
Canberra (YSCB) 20.01.2018 03:00 UTC Zobrazit METAR
YSCB 200300Z 06014KT 9999 FEW050 SCT200 38/M00 Q1014 NOSIG
Caracas (SVMP) Zatím nenačteno  
Cayenne (SOCA) 20.01.2018 03:00 UTC Zobrazit METAR
SOCA 200300Z AUTO VRB02KT 9999 SCT017 SCT046 BKN058 24/23 Q1014 TEMPO 3000 SHRA SCT012TCU
Charlotte Amalie (TIST) 20.01.2018 02:53 UTC Zobrazit METAR
TIST 200253Z AUTO 07009KT 10SM CLR 25/23 A3006 RMK AO2 SLP178 T02500228 50004 $
Chisinau (LUKK) 20.01.2018 02:00 UTC Zobrazit METAR
LUKK 200200Z 33005KT 2400 -FZRA BR OVC038 M00/M02 Q1011 R08/820494 TEMPO 1200 FZRA BR BKN015
Colombo (VCBI) 20.01.2018 01:10 UTC Zobrazit METAR
VCBI 200110Z 02007KT 4000 BR NSC 21/19 Q1011 BECMG 6000
Conakry (GUCY) 20.01.2018 01:00 UTC Zobrazit METAR
GUCY 200100Z 00000KT 3000 BR NSC 26/23 Q1011 NOSIG
Constanta (LRCK) 20.01.2018 03:00 UTC Zobrazit METAR
LRCK 200300Z 18008KT CAVOK 02/M03 Q1010 NOSIG
Constantine (DABC) 20.01.2018 03:00 UTC Zobrazit METAR
DABC 200300Z 01008KT 9999 FEW033 SCT200 07/06 Q1019
Copenhagen (EKCH) 20.01.2018 02:50 UTC Zobrazit METAR
EKCH 200250Z 21005KT 9999 -RA FEW011 BKN015 02/01 Q1004 TEMPO BKN008
Cork (EICK) 20.01.2018 02:00 UTC Zobrazit METAR
EICK 200200Z 10004KT 4500 -RADZ SCT002 SCT014 OVC022 05/05 Q1000 TEMPO 2000 BKN002
Cotonou (DBBB) 20.01.2018 02:00 UTC Zobrazit METAR
DBBB 200200Z 22009KT 8000 SCT011 27/25 Q1010 NOSIG
Curacao Island (TNCC) 20.01.2018 03:00 UTC Zobrazit METAR
TNCC 200300Z 11011KT 9999 FEW020 27/23 Q1015 NOSIG
Dakar (GOOY) 20.01.2018 03:00 UTC Zobrazit METAR
GOOY 200300Z 02010KT 6000 NSC 17/15 Q1014
Damascus (OSDI) 20.01.2018 03:00 UTC Zobrazit METAR
OSDI 200300Z 23008KT CAVOK 01/M01 Q1019
Debrecen (LHDC) 19.01.2018 20:45 UTC Zobrazit METAR
LHDC 192045Z 24005KT 8000 SCT016 OVC050 03/02 Q1011 NOSIG
Delhi (VIDP) 18.01.2018 14:00 UTC Zobrazit METAR
VIDP 181400Z 26003KT 2000 FU NSC 19/11 Q1014 NOSIG
Dhaka (VGZR) Zatím nenačteno  
Diego Garcia (FJDG) 20.01.2018 02:55 UTC Zobrazit METAR
FJDG 200255Z 26009KT 9000 -RA FEW015 SCT050 OVC080 27/26 A2985 RMK SLP105 P0002 T02670263
Djibouti (HDAM) 18.01.2018 10:00 UTC Zobrazit METAR
HDAM 181000Z 08010KT 9999 FEW020 28/18 Q1015
Dnipropetrovs'k (UKDD) 12.08.2013 14:00 UTC Zobrazit METAR
UKDD 121400Z CAVOK 33/13 Q1012 08090070 NOSIG
Dodoma (HTDO) 19.01.2018 08:00 UTC Zobrazit METAR
HTDO 190800Z 24005KT 9999 SCT024 26/19 Q1016 NOSIG
Doha (OTBD) 20.01.2018 03:00 UTC Zobrazit METAR
OTBD 200300Z 17003KT 9000 NSC 16/15 Q1017 NOSIG
Dortmund (EDLW) 20.01.2018 02:50 UTC Zobrazit METAR
EDLW 200250Z AUTO 23012KT 9999 // FEW022/// BKN037/// BKN056/// 01/M01 Q1008
Dresden (EDDC) 20.01.2018 02:50 UTC Zobrazit METAR
EDDC 200250Z 21007KT CAVOK 00/M02 Q1008
Dublin (EIDW) 20.01.2018 03:00 UTC Zobrazit METAR
EIDW 200300Z 22004KT CAVOK 03/01 Q1001 NOSIG
Dubrovnik (LDDU) 20.01.2018 03:00 UTC Zobrazit METAR
LDDU 200300Z 17009KT 140V220 9999 FEW015 BKN023 12/12 Q1010 NOSIG
Dushanbe (UTDD) Zatím nenačteno  
Dusseldorf (EDDL) 20.01.2018 02:50 UTC Zobrazit METAR
EDDL 200250Z 23011KT 9999 FEW006 BKN015 03/01 Q1009 TEMPO BKN012
Dzaoudzi (FMCZ) 20.01.2018 03:00 UTC Zobrazit METAR
FMCZ 200300Z 34012KT 9999 SCT023 BKN290 28/24 Q1010 NOSIG
Edinburgh (EGPH) 20.01.2018 02:50 UTC Zobrazit METAR
EGPH 200250Z 24011KT CAVOK 01/00 Q0998
Eindhoven (EHEH) 20.01.2018 01:55 UTC Zobrazit METAR
EHEH 200155Z AUTO 20010KT 9999 FEW028 OVC032 02/01 Q1008 BLU
Entebbe (HUEN) 17.01.2018 21:00 UTC Zobrazit METAR
HUEN 172100Z 35002KT 9000 FEW019 22/19 Q1014 NOSIG
Esbjerg (EKEB) 15.12.2017 15:50 UTC Zobrazit METAR
EKEB 151550Z 23003KT 6000 MIFG FEW035 01/01 Q0995
Faro (LPFR) 20.01.2018 03:00 UTC Zobrazit METAR
LPFR 200300Z 01005KT CAVOK 09/08 Q1026
Florence (LIRQ) 19.01.2018 21:50 UTC Zobrazit METAR
LIRQ 192150Z VRB01KT 3000 BR BKN025 08/08 Q1011
Foggia, Gino Lisa (LIBF) 19.01.2018 14:50 UTC Zobrazit METAR
LIBF 191450Z 23019KT 9999 FEW030 SCT050 14/06 Q1009
Fort de France (TFFF) 20.01.2018 03:00 UTC Zobrazit METAR
TFFF 200300Z AUTO 09006KT 9999 FEW024/// SCT032/// 25/22 Q1016 NOSIG
Frankfurt/ Main (EDDF) 20.01.2018 02:50 UTC Zobrazit METAR
EDDF 200250Z 17004KT 9999 FEW014 BKN027 01/M01 Q1011 NOSIG
Freetown (GFLL) 20.01.2018 03:00 UTC Zobrazit METAR
GFLL 200300Z 27008KT 8000 NSC 26/23 Q1010
Funafuti (NGFU) 20.01.2018 03:00 UTC Zobrazit METAR
NGFU 200300Z 11013KT 9999 FEW020 32/25 Q1005
Gaborone (FBSK) 20.01.2018 03:00 UTC Zobrazit METAR
FBSK 200300Z 04005KT CAVOK 21/01 Q1016 NOSIG
Předchozí 1 2 3 4 5 ... 9 Další
Reklama

Počasí na Váš email

Emaily jsou bez reklamy a bez spamu



Odhlásit newsletter

Reklama


Lunární kalendář

  • 24.01.
  • 31.01.
  • 07.02.
  • 15.02.



Jsme na Google Plus

Reklama
Povinné ručení



Může Vás také zajímat:


Reklama